This is the latest recevied weather packets stored in our database for station/object HS5NMF. If no packets are shown the sender has not sent any weather packets the latest 1 day(s).
| Time | Temp. | Humidity | Pressure | Rain* | Wind** | Luminosity | Snow |
|---|---|---|---|---|---|---|---|
| 1778075470 | 31.67° C | 72% | 976 hPa | - | - | 0 W/m² | - |
| 1778075144 | 31.67° C | 72% | 976 hPa | - | - | 0 W/m² | - |
| 1778074172 | 31.67° C | 69% | 976 hPa | - | - | 0 W/m² | - |
| 1778073849 | 32.22° C | 68% | 976 hPa | - | - | 0 W/m² | - |
| 1778073203 | 31.11° C | 70% | 976 hPa | - | - | 0 W/m² | - |
| 1778072880 | 31.11° C | 70% | 976 hPa | - | - | 0 W/m² | - |
| 1778072557 | 31.11° C | 69% | 976 hPa | - | - | 0 W/m² | - |
| 1778072232 | 31.67° C | 68% | 975 hPa | - | - | 0 W/m² | - |
| 1778071261 | 31.11° C | 68% | 975 hPa | - | - | 0 W/m² | - |
| 1778070939 | 31.11° C | 68% | 975 hPa | - | - | 0 W/m² | - |
| 1778070615 | 31.11° C | 69% | 975 hPa | - | - | 0 W/m² | - |
| 1778069320 | 31.67° C | 70% | 975 hPa | - | - | 0 W/m² | - |
| 1778068997 | 31.67° C | 70% | 975 hPa | - | - | 0 W/m² | - |
| 1778068673 | 32.22° C | 70% | 975 hPa | - | - | 0 W/m² | - |
| 1778066732 | 32.22° C | 67% | 975 hPa | - | - | 0 W/m² | - |
| 1778065764 | 33.33° C | 62% | 975 hPa | - | - | 0 W/m² | - |
| 1778065440 | 33.33° C | 61% | 975 hPa | - | - | 0 W/m² | - |
| 1778064470 | 33.89° C | 57% | 974 hPa | - | - | 0 W/m² | - |
| 1778063748 | 33.89° C | 58% | 974 hPa | - | - | 0 W/m² | - |
| 1778062782 | 33.33° C | 58% | 974 hPa | - | - | 0 W/m² | - |
| 1778062134 | 33.33° C | 60% | 974 hPa | - | - | 0 W/m² | - |
| 1778061812 | 33.33° C | 60% | 974 hPa | - | - | 0 W/m² | - |
| 1778061492 | 33.33° C | 61% | 974 hPa | - | - | 0 W/m² | - |
| 1778061166 | 33.33° C | 62% | 974 hPa | - | - | 0 W/m² | - |
| 1778060843 | 33.33° C | 63% | 974 hPa | - | - | 0 W/m² | - |
* Rain since midnight (hover to see other rain measurements)
** Current wind speed in m/s (hover to see current wind gust speed)